Time;durP1;ratioP1;P1;durP2;ratioP2;P2;SDS_P1;SDS_P2;PMS_P1;PMS_P2;Temp;Humidity;BMP_temperature;BMP_pressure;BME280_temperature;BME280_humidity;BME280_pressure;Samples;Min_cycle;Max_cycle;Signal;HPM_P1;HPM_P2
2021/08/16 00:00:23;;;;;;;4.80;3.13;;;19.30;99.90;;;;;;5113472;28;20245;-72
2021/08/16 00:02:48;;;;;;;3.80;2.70;;;19.30;99.90;;;;;;5113684;28;20214;-71
2021/08/16 00:05:15;;;;;;;6.00;3.90;;;19.20;99.90;;;;;;5113626;28;20146;-71
2021/08/16 00:07:41;;;;;;;5.50;2.90;;;19.20;99.90;;;;;;5113876;28;20158;-72
2021/08/16 00:10:08;;;;;;;4.40;3.87;;;19.20;99.90;;;;;;5113601;28;20427;-72
2021/08/16 00:12:34;;;;;;;4.00;3.03;;;19.20;99.90;;;;;;5113173;28;20820;-72
2021/08/16 00:14:59;;;;;;;4.90;3.83;;;19.20;99.90;;;;;;5113542;28;20939;-72
2021/08/16 00:17:25;;;;;;;4.47;3.27;;;19.20;99.90;;;;;;5113411;28;20480;-71
2021/08/16 00:19:51;;;;;;;3.03;2.67;;;19.20;99.90;;;;;;5113380;28;20186;-71
2021/08/16 00:22:16;;;;;;;5.43;3.60;;;19.10;99.90;;;;;;5096327;28;20442;-71
2021/08/16 00:24:42;;;;;;;3.60;2.70;;;19.10;99.90;;;;;;5092856;28;20203;-71
2021/08/16 00:27:08;;;;;;;4.37;3.20;;;19.10;99.90;;;;;;5093012;28;20190;-71
2021/08/16 00:29:33;;;;;;;4.13;3.73;;;19.10;99.90;;;;;;5103546;28;20415;-71
2021/08/16 00:31:59;;;;;;;4.97;3.97;;;19.10;99.90;;;;;;5113047;28;20280;-71
2021/08/16 00:34:25;;;;;;;3.60;2.93;;;19.10;99.90;;;;;;5113357;28;20162;-71
2021/08/16 00:36:51;;;;;;;4.70;2.90;;;19.10;99.90;;;;;;5113385;28;20169;-72
2021/08/16 00:39:17;;;;;;;7.00;2.73;;;19.00;99.90;;;;;;5113035;28;20196;-72
2021/08/16 00:41:47;;;;;;;2.63;2.00;;;19.00;99.90;;;;;;5113287;28;20887;-72
2021/08/16 00:44:12;;;;;;;4.47;2.33;;;18.90;99.90;;;;;;5113038;28;20164;-72
2021/08/16 00:46:38;;;;;;;3.03;1.90;;;18.80;99.90;;;;;;5112642;28;20498;-71
2021/08/16 00:49:04;;;;;;;2.60;1.73;;;18.70;99.90;;;;;;5113086;28;20180;-71
2021/08/16 00:51:31;;;;;;;4.93;1.90;;;18.70;99.90;;;;;;5112818;28;20156;-71
2021/08/16 00:53:58;;;;;;;2.20;1.43;;;18.70;99.90;;;;;;5112845;28;20160;-71
2021/08/16 00:56:26;;;;;;;2.73;1.90;;;18.70;99.90;;;;;;5112780;28;20460;-71
2021/08/16 00:58:54;;;;;;;2.80;1.70;;;18.70;99.90;;;;;;5112769;28;20471;-72
2021/08/16 01:01:20;;;;;;;1.57;1.40;;;18.70;99.90;;;;;;5112819;28;20384;-71
2021/08/16 01:03:46;;;;;;;2.37;1.30;;;18.60;99.90;;;;;;5112641;28;20413;-71
2021/08/16 01:06:11;;;;;;;2.80;1.70;;;18.60;99.90;;;;;;5112794;28;20735;-71
2021/08/16 01:08:37;;;;;;;4.40;1.60;;;18.60;99.90;;;;;;5112738;28;20168;-72
2021/08/16 01:11:02;;;;;;;9.50;2.43;;;18.60;99.90;;;;;;5112770;28;20165;-71
2021/08/16 01:13:28;;;;;;;6.53;1.93;;;18.60;99.90;;;;;;5112537;28;20170;-71
2021/08/16 01:15:58;;;;;;;2.27;1.50;;;18.60;99.90;;;;;;5112732;28;20147;-71
2021/08/16 01:18:25;;;;;;;3.03;1.77;;;18.50;99.90;;;;;;5112988;28;20660;-71
2021/08/16 01:20:51;;;;;;;3.17;1.93;;;18.50;99.90;;;;;;5107077;28;20491;-71
2021/08/16 01:23:16;;;;;;;2.60;1.80;;;18.50;99.90;;;;;;5092237;28;20894;-71
2021/08/16 01:25:47;;;;;;;2.20;1.27;;;18.40;99.90;;;;;;5092441;28;20397;-71
2021/08/16 01:28:14;;;;;;;3.43;1.50;;;18.30;99.90;;;;;;5092098;28;20162;-71
2021/08/16 01:30:40;;;;;;;1.60;1.40;;;18.20;99.90;;;;;;5092195;28;20390;-71
2021/08/16 01:33:05;;;;;;;2.10;1.13;;;18.10;99.90;;;;;;5092235;28;20447;-71
2021/08/16 01:35:31;;;;;;;3.07;1.70;;;18.00;99.90;;;;;;5092159;28;20160;-71
2021/08/16 01:37:56;;;;;;;4.53;1.47;;;17.90;99.90;;;;;;5105963;28;20190;-71
2021/08/16 01:40:22;;;;;;;3.10;1.80;;;17.80;99.90;;;;;;5112358;28;20656;-71
2021/08/16 01:42:47;;;;;;;4.67;2.10;;;17.70;99.90;;;;;;5112457;28;20158;-71
2021/08/16 01:45:13;;;;;;;8.73;2.27;;;17.60;99.90;;;;;;5112582;28;20163;-71
2021/08/16 01:47:38;;;;;;;1.80;1.67;;;17.60;99.90;;;;;;5112583;28;20528;-71
2021/08/16 01:50:05;;;;;;;4.03;2.30;;;17.50;99.90;;;;;;5112365;28;20172;-71
2021/08/16 01:52:30;;;;;;;2.60;1.80;;;17.50;99.90;;;;;;5112340;28;20167;-71
2021/08/16 01:54:56;;;;;;;11.77;3.50;;;17.50;99.90;;;;;;5112256;28;20423;-71
2021/08/16 01:57:21;;;;;;;5.57;3.23;;;17.50;99.90;;;;;;5112297;28;20151;-71
2021/08/16 01:59:47;;;;;;;5.73;2.47;;;17.60;99.90;;;;;;5112146;28;20289;-71
2021/08/16 02:02:13;;;;;;;2.90;2.27;;;17.50;99.90;;;;;;5112310;28;20241;-71
2021/08/16 02:04:38;;;;;;;2.90;1.80;;;17.60;99.90;;;;;;5112233;28;20890;-71
2021/08/16 02:07:04;;;;;;;2.00;1.67;;;17.60;99.90;;;;;;5113767;28;20150;-71
2021/08/16 02:09:29;;;;;;;2.70;1.60;;;17.60;99.90;;;;;;5115961;28;20159;-71
2021/08/16 02:11:55;;;;;;;8.00;1.80;;;17.60;99.90;;;;;;5116287;28;20177;-72
2021/08/16 02:14:21;;;;;;;7.03;1.53;;;17.60;99.90;;;;;;5115931;28;20181;-72
2021/08/16 02:16:46;;;;;;;2.80;1.40;;;17.60;99.90;;;;;;5115933;28;20158;-72
2021/08/16 02:19:13;;;;;;;4.93;1.33;;;17.60;99.90;;;;;;5115698;28;20618;-72
2021/08/16 02:21:39;;;;;;;2.73;1.60;;;17.60;99.90;;;;;;5095672;28;20522;-72
2021/08/16 02:24:04;;;;;;;5.90;1.67;;;17.60;99.90;;;;;;5095441;28;20419;-72
2021/08/16 02:26:30;;;;;;;1.87;1.10;;;17.60;99.90;;;;;;5095202;28;20155;-72
2021/08/16 02:28:55;;;;;;;3.03;1.60;;;17.60;99.90;;;;;;5108814;28;20201;-72
2021/08/16 02:31:23;;;;;;;5.27;1.60;;;17.60;99.90;;;;;;5115639;28;20207;-72
2021/08/16 02:33:50;;;;;;;2.40;1.90;;;17.60;99.90;;;;;;5115503;28;20618;-72
2021/08/16 02:36:16;;;;;;;5.30;2.60;;;17.60;99.90;;;;;;5115507;28;20410;-72
2021/08/16 02:38:41;;;;;;;4.73;1.50;;;17.50;99.90;;;;;;5115224;28;20384;-72
2021/08/16 02:41:07;;;;;;;3.90;1.87;;;17.50;99.90;;;;;;5115387;28;20294;-72
2021/08/16 02:43:32;;;;;;;4.53;1.57;;;17.50;99.90;;;;;;5115212;28;20154;-72
2021/08/16 02:45:58;;;;;;;2.07;1.50;;;17.50;99.90;;;;;;5115386;28;20185;-72
2021/08/16 02:48:23;;;;;;;3.07;2.07;;;17.40;99.90;;;;;;5115239;28;20566;-72
2021/08/16 02:50:49;;;;;;;2.40;2.07;;;17.40;99.90;;;;;;5115110;28;20615;-72
2021/08/16 02:53:15;;;;;;;3.63;1.50;;;17.40;99.90;;;;;;5115344;28;20475;-72
2021/08/16 02:55:40;;;;;;;6.60;2.10;;;17.40;99.90;;;;;;5115216;28;20162;-72
2021/08/16 02:58:06;;;;;;;5.93;2.00;;;17.40;99.90;;;;;;5115003;28;20163;-72
2021/08/16 03:00:31;;;;;;;8.53;1.70;;;17.30;99.90;;;;;;5115351;28;20206;-71
2021/08/16 03:02:57;;;;;;;5.13;2.33;;;17.30;99.90;;;;;;5114732;28;20276;-71
2021/08/16 03:05:22;;;;;;;4.30;1.67;;;17.30;99.90;;;;;;5114921;28;20660;-71
2021/08/16 03:07:49;;;;;;;2.30;2.10;;;17.30;99.90;;;;;;5114849;28;20204;-71
2021/08/16 03:10:15;;;;;;;6.07;2.60;;;17.30;99.90;;;;;;5114853;28;20173;-71
2021/08/16 03:12:41;;;;;;;2.50;1.47;;;17.30;99.90;;;;;;5114750;28;20388;-71
2021/08/16 03:15:07;;;;;;;2.70;2.17;;;17.30;99.90;;;;;;5114642;28;20154;-71
2021/08/16 03:17:33;;;;;;;6.23;1.73;;;17.30;99.90;;;;;;5114982;28;20253;-71
2021/08/16 03:19:59;;;;;;;3.33;1.60;;;17.20;99.90;;;;;;5108109;28;20578;-71
2021/08/16 03:22:24;;;;;;;4.67;1.73;;;17.20;99.90;;;;;;5094276;28;20169;-71
2021/08/16 03:24:50;;;;;;;2.60;1.90;;;17.20;99.90;;;;;;5094112;28;20154;-71
2021/08/16 03:27:16;;;;;;;3.03;1.93;;;17.20;99.90;;;;;;5093990;28;20159;-71
2021/08/16 03:29:42;;;;;;;3.00;2.00;;;17.20;99.90;;;;;;5094043;28;20159;-71
2021/08/16 03:32:09;;;;;;;3.20;2.40;;;17.20;99.90;;;;;;5093928;28;20401;-71
2021/08/16 03:34:34;;;;;;;7.73;2.40;;;17.20;99.90;;;;;;5094036;28;20151;-71
2021/08/16 03:37:00;;;;;;;4.70;2.27;;;17.20;99.90;;;;;;5108405;28;20419;-71
2021/08/16 03:39:25;;;;;;;4.00;2.00;;;17.20;99.90;;;;;;5114081;28;20548;-71
2021/08/16 03:41:51;;;;;;;2.90;1.97;;;17.20;99.90;;;;;;5114040;28;20162;-71
2021/08/16 03:44:16;;;;;;;4.43;2.23;;;17.10;99.90;;;;;;5114217;28;20230;-71
2021/08/16 03:46:42;;;;;;;2.20;1.70;;;17.10;99.90;;;;;;5114183;28;20162;-71
2021/08/16 03:49:10;;;;;;;3.97;1.97;;;17.10;99.90;;;;;;5113916;28;20170;-71
2021/08/16 03:51:35;;;;;;;3.60;2.20;;;17.00;99.90;;;;;;5113989;28;20699;-71
2021/08/16 03:54:01;;;;;;;3.33;2.27;;;17.00;99.90;;;;;;5113608;28;20502;-71
2021/08/16 03:56:26;;;;;;;4.07;1.97;;;17.00;99.90;;;;;;5113853;28;20158;-71
2021/08/16 03:58:52;;;;;;;7.60;2.50;;;17.00;99.90;;;;;;5113690;28;20202;-71
2021/08/16 04:01:17;;;;;;;5.60;2.33;;;17.00;99.90;;;;;;5114382;28;20257;-71
2021/08/16 04:03:43;;;;;;;3.20;2.43;;;17.00;99.90;;;;;;5113596;28;20181;-71
2021/08/16 04:06:09;;;;;;;5.20;2.57;;;17.00;99.90;;;;;;5113684;28;20157;-71
2021/08/16 04:08:39;;;;;;;3.60;2.00;;;17.00;99.90;;;;;;5113737;28;20388;-71
2021/08/16 04:11:06;;;;;;;6.07;2.27;;;17.00;99.90;;;;;;5113402;28;20174;-71
2021/08/16 04:13:31;;;;;;;3.53;2.37;;;17.00;99.90;;;;;;5114117;28;20400;-71
2021/08/16 04:15:57;;;;;;;4.33;2.20;;;17.00;99.90;;;;;;5114060;28;20895;-71
2021/08/16 04:18:22;;;;;;;2.13;1.80;;;17.00;99.90;;;;;;5112682;28;20159;-71
2021/08/16 04:20:48;;;;;;;3.80;2.03;;;17.00;99.90;;;;;;5093239;28;20183;-71
2021/08/16 04:23:14;;;;;;;4.23;2.40;;;17.00;99.90;;;;;;5093083;28;20517;-71
2021/08/16 04:25:39;;;;;;;1.90;1.57;;;17.00;99.90;;;;;;5093184;28;20162;-71
2021/08/16 04:28:05;;;;;;;6.00;2.20;;;17.00;99.90;;;;;;5113414;27;20287;-71
2021/08/16 04:30:30;;;;;;;4.43;2.20;;;17.00;99.90;;;;;;5114425;27;20277;-71
2021/08/16 04:32:56;;;;;;;1.97;1.40;;;17.00;99.90;;;;;;5118223;27;20177;-71
2021/08/16 04:35:21;;;;;;;9.40;2.90;;;17.00;99.90;;;;;;5133647;27;20181;-71
2021/08/16 04:37:47;;;;;;;3.50;2.40;;;17.00;99.90;;;;;;5119037;27;20190;-71
2021/08/16 04:40:13;;;;;;;3.70;2.20;;;17.00;99.90;;;;;;5113108;28;20200;-71
2021/08/16 04:42:40;;;;;;;3.83;2.40;;;17.00;99.90;;;;;;5113282;28;20565;-71
2021/08/16 04:45:08;;;;;;;4.57;2.40;;;17.00;99.90;;;;;;5112601;28;20587;-71
2021/08/16 04:47:33;;;;;;;3.50;2.43;;;17.00;99.90;;;;;;5113005;28;20473;-71
2021/08/16 04:49:59;;;;;;;6.77;2.30;;;17.00;99.90;;;;;;5113131;28;20403;-71
2021/08/16 04:52:25;;;;;;;5.90;2.90;;;17.00;99.90;;;;;;5112957;28;20241;-71
2021/08/16 04:54:51;;;;;;;6.00;2.83;;;17.00;99.90;;;;;;5113043;28;20163;-71
2021/08/16 05:00:13;;;;;;;7.63;2.53;;;17.00;99.90;;;;;;5130676;27;20561;-71
2021/08/16 05:02:39;;;;;;;3.00;2.33;;;17.00;99.90;;;;;;5111938;28;20404;-71
2021/08/16 05:05:09;;;;;;;5.67;3.17;;;17.00;99.90;;;;;;5115385;28;20411;-71
2021/08/16 05:07:35;;;;;;;9.37;2.80;;;17.00;99.90;;;;;;5117051;28;20437;-71
2021/08/16 05:10:00;;;;;;;6.40;2.63;;;17.00;99.90;;;;;;5125837;28;20415;-71
2021/08/16 05:12:26;;;;;;;3.73;2.53;;;17.00;99.90;;;;;;5116005;27;20771;-71
2021/08/16 05:14:52;;;;;;;7.30;4.10;;;16.90;99.90;;;;;;5113233;28;20168;-71
2021/08/16 05:17:18;;;;;;;5.40;3.07;;;16.90;99.90;;;;;;5110206;28;20651;-71
2021/08/16 05:19:44;;;;;;;6.50;2.27;;;16.90;99.90;;;;;;5122437;28;20482;-71
2021/08/16 05:22:10;;;;;;;6.37;1.93;;;17.00;99.90;;;;;;5130575;28;20395;-71
2021/08/16 05:24:37;;;;;;;6.40;3.20;;;17.00;99.90;;;;;;5119301;27;20173;-71
2021/08/16 05:27:03;;;;;;;3.23;2.90;;;17.00;99.90;;;;;;5110321;28;20889;-71
2021/08/16 05:29:30;;;;;;;6.97;2.90;;;17.00;99.90;;;;;;5109569;28;20408;-71
2021/08/16 05:31:56;;;;;;;8.07;2.87;;;17.00;99.90;;;;;;5109549;28;20412;-71
2021/08/16 05:34:22;;;;;;;3.90;2.43;;;17.10;99.90;;;;;;5124147;28;20426;-71
2021/08/16 05:36:47;;;;;;;5.57;3.00;;;17.10;99.90;;;;;;5122666;27;20424;-71
2021/08/16 05:39:13;;;;;;;2.43;2.03;;;17.10;99.90;;;;;;5111127;28;20548;-71
2021/08/16 05:41:38;;;;;;;3.20;2.33;;;17.10;99.90;;;;;;5109657;28;20197;-71
2021/08/16 05:44:04;;;;;;;4.30;2.80;;;17.10;99.90;;;;;;5114642;28;20182;-71
2021/08/16 05:46:29;;;;;;;4.97;2.60;;;17.10;99.90;;;;;;5116871;28;20647;-71
2021/08/16 05:48:55;;;;;;;6.77;2.33;;;17.10;99.90;;;;;;5111441;27;20216;-71
2021/08/16 05:51:21;;;;;;;4.97;3.30;;;17.10;99.90;;;;;;5111846;28;20634;-71
2021/08/16 05:53:46;;;;;;;3.17;2.73;;;17.20;99.90;;;;;;5120311;28;20249;-71
2021/08/16 05:56:12;;;;;;;4.80;3.07;;;17.20;99.90;;;;;;5119620;28;20632;-71
2021/08/16 05:58:37;;;;;;;5.00;3.40;;;17.20;99.90;;;;;;5108647;28;20527;-71
2021/08/16 06:01:03;;;;;;;7.53;3.53;;;17.30;99.90;;;;;;5118318;28;20532;-71
2021/08/16 06:03:28;;;;;;;2.80;2.57;;;17.30;99.90;;;;;;5129156;28;20192;-71
2021/08/16 06:05:54;;;;;;;2.60;2.40;;;17.30;99.90;;;;;;5110752;28;20189;-71
2021/08/16 06:08:20;;;;;;;4.77;2.93;;;17.30;99.90;;;;;;5110830;28;20186;-71
2021/08/16 06:10:45;;;;;;;5.77;3.37;;;17.40;99.90;;;;;;5115825;28;20178;-71
2021/08/16 06:13:11;;;;;;;5.03;3.50;;;17.40;99.90;;;;;;5094871;28;20204;-71
2021/08/16 06:15:38;;;;;;;4.10;2.67;;;17.40;99.90;;;;;;5104944;28;20650;-71
2021/08/16 06:18:03;;;;;;;4.67;2.67;;;17.40;99.90;;;;;;5096969;28;20598;-71
2021/08/16 06:20:29;;;;;;;4.80;2.50;;;17.40;99.90;;;;;;5112833;28;20452;-71
2021/08/16 06:22:55;;;;;;;4.60;2.70;;;17.40;99.90;;;;;;5115734;28;20495;-71
2021/08/16 06:25:20;;;;;;;9.20;2.77;;;17.50;99.90;;;;;;5111484;28;20637;-71
2021/08/16 06:27:46;;;;;;;6.23;2.50;;;17.50;99.90;;;;;;5101771;28;20192;-71
2021/08/16 06:30:11;;;;;;;4.73;3.00;;;17.50;99.90;;;;;;5095282;28;20206;-71
2021/08/16 06:32:38;;;;;;;4.40;2.50;;;17.60;99.90;;;;;;5114450;28;20178;-71
2021/08/16 06:35:05;;;;;;;5.83;3.10;;;17.60;99.90;;;;;;5128018;27;20605;-71
2021/08/16 06:37:30;;;;;;;3.80;2.97;;;17.60;99.90;;;;;;5133226;27;20411;-71
2021/08/16 06:39:56;;;;;;;7.40;3.30;;;17.60;99.90;;;;;;5094266;28;20455;-71
2021/08/16 06:42:22;;;;;;;3.63;2.90;;;17.60;99.90;;;;;;5094212;28;20214;-71
2021/08/16 06:44:48;;;;;;;3.57;2.40;;;17.60;99.90;;;;;;5101945;27;20268;-71
2021/08/16 06:47:14;;;;;;;4.10;2.73;;;17.60;99.90;;;;;;5114356;28;20170;-71
2021/08/16 06:49:39;;;;;;;3.30;3.00;;;17.70;99.90;;;;;;5107578;28;20423;-71
2021/08/16 06:52:05;;;;;;;4.90;2.57;;;17.70;99.90;;;;;;5093507;28;20421;-71
2021/08/16 06:54:31;;;;;;;3.90;2.43;;;17.70;99.90;;;;;;5109913;28;20684;-71
2021/08/16 06:56:58;;;;;;;4.20;2.63;;;17.70;99.90;;;;;;5092598;28;20241;-71
2021/08/16 06:59:24;;;;;;;4.37;2.70;;;17.80;99.90;;;;;;5093210;28;21030;-71
2021/08/16 07:01:49;;;;;;;3.37;2.30;;;17.80;99.90;;;;;;5099204;28;20424;-71
2021/08/16 07:04:15;;;;;;;3.70;2.47;;;17.90;99.90;;;;;;5098185;28;20183;-71
2021/08/16 07:06:40;;;;;;;4.23;2.83;;;17.90;99.90;;;;;;5094436;28;20547;-71
2021/08/16 07:09:06;;;;;;;4.87;2.90;;;17.90;99.90;;;;;;5103004;28;20170;-71
2021/08/16 07:11:32;;;;;;;6.17;3.10;;;18.00;99.90;;;;;;5101874;28;20244;-71
2021/08/16 07:13:57;;;;;;;5.60;3.20;;;18.00;99.90;;;;;;5098522;28;20272;-71
2021/08/16 07:16:23;;;;;;;3.10;2.40;;;18.00;99.90;;;;;;5108001;28;20181;-71
2021/08/16 07:18:49;;;;;;;4.60;2.87;;;18.00;99.90;;;;;;5104275;28;20207;-71
2021/08/16 07:21:15;;;;;;;4.03;2.70;;;18.00;99.90;;;;;;5098183;27;20217;-71
2021/08/16 07:23:40;;;;;;;5.87;2.47;;;18.10;99.90;;;;;;5101540;28;20928;-71
2021/08/16 07:26:06;;;;;;;5.57;2.93;;;18.20;99.90;;;;;;5099272;28;20181;-71
2021/08/16 07:28:35;;;;;;;4.83;4.17;;;18.40;99.90;;;;;;5113381;28;20508;-71
2021/08/16 07:31:01;;;;;;;6.23;3.40;;;18.50;99.90;;;;;;5112639;28;20255;-71
2021/08/16 07:33:27;;;;;;;4.30;2.70;;;18.50;99.90;;;;;;5093182;27;20440;-71
2021/08/16 07:35:52;;;;;;;5.37;3.00;;;18.60;99.90;;;;;;5097682;28;20170;-71
2021/08/16 07:38:18;;;;;;;4.93;3.03;;;18.70;99.90;;;;;;5102258;28;20728;-71
2021/08/16 07:40:44;;;;;;;3.37;2.73;;;18.80;99.90;;;;;;5098749;28;20559;-71
2021/08/16 07:43:10;;;;;;;4.10;2.70;;;18.80;99.90;;;;;;5111222;28;20421;-71
2021/08/16 07:45:36;;;;;;;3.03;2.60;;;18.90;99.90;;;;;;5110684;28;20448;-71
2021/08/16 07:48:03;;;;;;;2.60;2.20;;;18.90;99.90;;;;;;5108483;28;20222;-71
2021/08/16 07:50:29;;;;;;;4.33;2.80;;;18.90;99.90;;;;;;5089256;28;20448;-71
2021/08/16 07:52:55;;;;;;;6.20;2.10;;;19.00;99.90;;;;;;5094959;28;20420;-71
2021/08/16 07:55:21;;;;;;;3.10;2.53;;;19.00;99.90;;;;;;5093510;28;20558;-71
2021/08/16 07:57:47;;;;;;;4.20;2.57;;;19.00;99.90;;;;;;5098525;28;20957;-71
2021/08/16 08:00:13;;;;;;;3.37;3.07;;;19.10;99.90;;;;;;5103530;28;20281;-71
2021/08/16 08:05:20;;;;;;;4.00;2.47;;;19.20;99.90;;;;;;5038436;28;21182;-71
2021/08/16 08:07:46;;;;;;;2.77;2.23;;;19.30;99.90;;;;;;5029064;28;20419;-71
2021/08/16 08:10:13;;;;;;;4.20;2.17;;;19.30;99.90;;;;;;5029441;28;20407;-71
2021/08/16 08:12:39;;;;;;;3.37;2.57;;;19.40;99.90;;;;;;5029482;28;20795;-71
2021/08/16 08:15:06;;;;;;;2.40;2.20;;;19.30;99.90;;;;;;5029622;28;20842;-71
2021/08/16 08:17:32;;;;;;;3.70;2.97;;;19.30;99.90;;;;;;5025076;28;20431;-71
2021/08/16 08:19:57;;;;;;;2.90;2.30;;;19.30;99.90;;;;;;5029608;28;20467;-71
2021/08/16 08:22:24;;;;;;;4.73;2.60;;;19.30;99.90;;;;;;5028726;28;20205;-71
2021/08/16 08:24:50;;;;;;;5.23;2.90;;;19.30;99.90;;;;;;5029036;28;20677;-71
2021/08/16 08:27:17;;;;;;;5.63;2.27;;;19.30;99.90;;;;;;5028484;28;20933;-71
2021/08/16 08:29:42;;;;;;;3.20;2.30;;;19.30;99.90;;;;;;5023963;28;20423;-71
2021/08/16 08:32:08;;;;;;;2.23;2.00;;;19.30;99.90;;;;;;5028925;28;20427;-71
2021/08/16 08:34:34;;;;;;;4.03;3.00;;;19.50;99.90;;;;;;5029487;28;20269;-71
2021/08/16 08:37:00;;;;;;;4.23;2.73;;;19.60;99.90;;;;;;5026505;28;20172;-71
2021/08/16 08:39:26;;;;;;;5.40;2.13;;;19.70;99.90;;;;;;5027635;28;20518;-71
2021/08/16 08:41:57;;;;;;;2.87;2.10;;;19.90;99.90;;;;;;5027358;28;20936;-71
2021/08/16 08:44:24;;;;;;;6.23;2.90;;;20.00;99.90;;;;;;5029003;28;20288;-71
2021/08/16 08:46:50;;;;;;;3.60;2.50;;;20.10;99.90;;;;;;5029246;28;20415;-71
2021/08/16 08:49:15;;;;;;;3.90;1.87;;;20.30;99.90;;;;;;5029209;28;20781;-71
2021/08/16 08:51:42;;;;;;;2.50;1.90;;;20.40;99.90;;;;;;5028919;28;20400;-71
2021/08/16 08:54:08;;;;;;;5.20;2.70;;;20.50;99.90;;;;;;5028655;28;20181;-71
2021/08/16 08:56:34;;;;;;;2.60;1.93;;;20.50;99.90;;;;;;5027920;28;20843;-71
2021/08/16 08:58:59;;;;;;;3.00;1.70;;;20.60;99.90;;;;;;5034239;28;20478;-71
2021/08/16 09:01:27;;;;;;;2.83;2.20;;;20.60;99.90;;;;;;5027887;28;20462;-71
2021/08/16 09:03:53;;;;;;;4.10;2.10;;;20.70;99.90;;;;;;5028430;28;20213;-71
2021/08/16 09:06:38;;;;;;;2.53;2.00;;;20.80;99.90;;;;;;5028381;28;20776;-71
2021/08/16 09:09:06;;;;;;;4.30;2.20;;;20.80;99.90;;;;;;5027695;28;20472;-71
2021/08/16 09:11:32;;;;;;;4.30;2.30;;;20.80;99.90;;;;;;5032356;28;20411;-71
2021/08/16 09:14:04;;;;;;;5.67;2.70;;;20.80;99.90;;;;;;5029394;28;20498;-71
2021/08/16 09:16:33;;;;;;;7.10;2.30;;;20.80;99.90;;;;;;5013170;28;20444;-71
2021/08/16 09:19:10;;;;;;;2.37;1.90;;;20.80;99.90;;;;;;5011732;28;20478;-71
2021/08/16 09:21:38;;;;;;;4.73;4.40;;;20.80;99.90;;;;;;5014812;28;20523;-71
2021/08/16 09:24:05;;;;;;;2.07;1.70;;;21.00;99.90;;;;;;5014996;28;20471;-71
2021/08/16 09:26:35;;;;;;;5.40;2.17;;;21.20;99.90;;;;;;5015115;28;20570;-71
2021/08/16 09:29:09;;;;;;;3.97;2.07;;;21.60;99.90;;;;;;5013960;28;20819;-71
2021/08/16 09:31:35;;;;;;;5.83;1.53;;;21.80;99.90;;;;;;5014881;28;20420;-71
2021/08/16 09:34:00;;;;;;;2.97;1.57;;;21.90;99.90;;;;;;5014190;28;20446;-71
2021/08/16 09:36:41;;;;;;;4.53;2.20;;;21.90;99.90;;;;;;5014827;28;20309;-71
2021/08/16 09:39:23;;;;;;;2.20;2.00;;;22.00;99.90;;;;;;5014904;28;20176;-71
2021/08/16 09:41:57;;;;;;;3.27;2.17;;;22.00;99.90;;;;;;5014882;28;20440;-71
2021/08/16 09:44:24;;;;;;;1.50;1.40;;;22.10;99.90;;;;;;5014463;28;20471;-71
2021/08/16 09:47:00;;;;;;;2.80;1.80;;;22.20;99.90;;;;;;5014460;28;20423;-71
2021/08/16 09:49:25;;;;;;;7.67;2.40;;;22.40;99.90;;;;;;5014812;28;20404;-71
2021/08/16 09:52:01;;;;;;;2.87;1.50;;;22.50;99.90;;;;;;5014033;28;20415;-71
2021/08/16 09:54:27;;;;;;;1.90;1.80;;;22.60;99.90;;;;;;5014003;28;20199;-71
2021/08/16 09:56:54;;;;;;;3.67;1.77;;;22.50;99.90;;;;;;5014346;28;20413;-71
2021/08/16 09:59:21;;;;;;;2.13;1.87;;;22.40;99.90;;;;;;5014878;28;20474;-71
2021/08/16 10:01:47;;;;;;;2.90;1.70;;;22.30;99.90;;;;;;5014733;28;20431;-71
2021/08/16 10:04:12;;;;;;;2.40;2.10;;;22.30;99.90;;;;;;5014454;28;20529;-71
2021/08/16 10:06:39;;;;;;;3.53;1.90;;;22.40;99.90;;;;;;5013917;28;20181;-71
2021/08/16 10:09:05;;;;;;;2.40;1.60;;;22.50;99.90;;;;;;5013193;28;21120;-71
2021/08/16 10:11:31;;;;;;;5.07;2.20;;;22.70;99.90;;;;;;5014433;28;20430;-71
2021/08/16 10:13:57;;;;;;;3.93;1.97;;;22.90;99.90;;;;;;5013044;28;20799;-71
2021/08/16 10:16:25;;;;;;;3.70;1.80;;;23.00;99.90;;;;;;5008297;28;20433;-71
2021/08/16 10:18:59;;;;;;;3.17;1.50;;;23.00;99.90;;;;;;4994846;28;20166;-71
2021/08/16 10:21:25;;;;;;;7.33;1.73;;;22.80;99.90;;;;;;4994556;28;20911;-71
2021/08/16 10:23:53;;;;;;;4.90;2.10;;;22.60;99.90;;;;;;5005682;28;20463;-71
2021/08/16 10:26:36;;;;;;;2.93;2.07;;;22.30;99.90;;;;;;5013752;28;20428;-71
2021/08/16 10:29:05;;;;;;;2.47;2.00;;;22.10;99.90;;;;;;5012029;28;20432;-71
2021/08/16 10:31:36;;;;;;;4.50;2.17;;;21.90;99.90;;;;;;5014022;28;20813;-71
2021/08/16 10:34:02;;;;;;;3.37;2.33;;;21.70;99.90;;;;;;4994719;28;20398;-71
2021/08/16 10:36:28;;;;;;;3.63;2.50;;;21.50;99.90;;;;;;5013966;28;20495;-71
2021/08/16 10:38:57;;;;;;;3.97;2.73;;;21.30;99.90;;;;;;5004409;28;20474;-71
2021/08/16 10:44:15;;;;;;;2.80;2.53;;;21.00;99.90;;;;;;5055857;28;20537;-71
2021/08/16 10:46:45;;;;;;;3.07;2.67;;;20.90;99.90;;;;;;5051906;28;20459;-71
2021/08/16 10:49:13;;;;;;;3.50;2.50;;;20.90;99.90;;;;;;5029517;28;20479;-71
2021/08/16 10:51:47;;;;;;;2.87;2.30;;;20.80;99.90;;;;;;5044846;28;20833;-71
2021/08/16 10:54:33;;;;;;;3.10;2.40;;;20.70;99.90;;;;;;5048996;28;20813;-71
2021/08/16 10:56:59;;;;;;;6.40;3.07;;;20.60;99.90;;;;;;5046370;28;20912;-71
2021/08/16 10:59:29;;;;;;;3.47;2.20;;;20.50;99.90;;;;;;5048192;28;20944;-71
2021/08/16 11:01:56;;;;;;;6.83;3.20;;;20.30;99.90;;;;;;5049363;28;20486;-71
2021/08/16 11:04:40;;;;;;;2.93;2.63;;;20.20;99.90;;;;;;5048546;28;20453;-71
2021/08/16 11:07:09;;;;;;;4.37;2.47;;;20.00;99.90;;;;;;5049329;28;20906;-71
2021/08/16 11:09:37;;;;;;;4.77;2.83;;;19.90;99.90;;;;;;5049231;28;20407;-71
2021/08/16 11:12:06;;;;;;;3.60;2.07;;;19.80;99.90;;;;;;5049870;28;20452;-71
2021/08/16 11:14:34;;;;;;;2.37;2.07;;;19.60;99.90;;;;;;5048533;28;20961;-71
2021/08/16 11:17:00;;;;;;;3.50;2.30;;;19.50;99.90;;;;;;5035933;28;20427;-71
2021/08/16 11:19:28;;;;;;;2.43;1.83;;;19.40;99.90;;;;;;5047701;28;20449;-70
2021/08/16 11:24:36;;;;;;;1.40;1.30;;;19.30;99.90;;;;;;5121519;27;20524;-71
2021/08/16 11:27:02;;;;;;;2.13;1.60;;;19.10;99.90;;;;;;5107540;28;20473;-71
2021/08/16 11:29:29;;;;;;;2.03;1.83;;;18.90;99.90;;;;;;5101343;28;20454;-71
2021/08/16 11:32:01;;;;;;;2.13;1.97;;;18.70;99.90;;;;;;5096286;28;20408;-71
2021/08/16 11:34:31;;;;;;;2.23;2.07;;;18.60;99.90;;;;;;5089827;28;20397;-71
2021/08/16 11:36:58;;;;;;;2.43;2.23;;;18.60;99.90;;;;;;5099184;28;20453;-71
2021/08/16 11:39:28;;;;;;;2.73;2.33;;;18.50;99.90;;;;;;5097713;28;20413;-71
2021/08/16 11:41:59;;;;;;;2.73;2.53;;;18.50;99.90;;;;;;5110032;28;20796;-71
2021/08/16 11:44:25;;;;;;;6.57;3.10;;;18.40;99.90;;;;;;5115552;27;20819;-71
2021/08/16 11:46:51;;;;;;;5.70;3.40;;;18.30;99.90;;;;;;5120436;28;20460;-71
2021/08/16 11:49:17;;;;;;;5.90;3.20;;;18.20;99.90;;;;;;5115504;27;20455;-71
2021/08/16 11:51:45;;;;;;;3.40;3.10;;;18.20;99.90;;;;;;5124445;28;20431;-71
2021/08/16 11:54:22;;;;;;;4.10;3.00;;;18.10;99.90;;;;;;5130330;27;20182;-71
2021/08/16 11:56:57;;;;;;;3.93;3.23;;;18.00;99.90;;;;;;5130518;27;20399;-71
2021/08/16 11:59:24;;;;;;;4.90;2.97;;;17.90;99.90;;;;;;5130124;27;20439;-71
2021/08/16 12:01:51;;;;;;;3.07;2.77;;;17.90;99.90;;;;;;5111429;27;20419;-71
2021/08/16 12:04:17;;;;;;;3.57;3.27;;;17.80;99.90;;;;;;5107554;27;20459;-71
2021/08/16 12:06:47;;;;;;;4.03;3.60;;;17.70;99.90;;;;;;5090872;28;20405;-71
2021/08/16 12:09:12;;;;;;;6.63;4.10;;;17.60;99.90;;;;;;5089926;28;20892;-71
2021/08/16 12:11:38;;;;;;;10.23;4.20;;;17.70;99.90;;;;;;5089517;28;20491;-71
2021/08/16 12:14:05;;;;;;;4.07;3.70;;;17.60;99.90;;;;;;5088846;28;20159;-71
2021/08/16 12:16:33;;;;;;;4.40;4.00;;;17.60;99.90;;;;;;5095047;28;20182;-70
2021/08/16 12:19:00;;;;;;;6.33;5.20;;;17.60;99.90;;;;;;5089966;28;20417;-70
2021/08/16 12:21:27;;;;;;;5.13;4.63;;;17.60;99.90;;;;;;5093949;28;20426;-70
2021/08/16 12:26:35;;;;;;;4.73;4.33;;;17.50;99.90;;;;;;5087807;27;20520;-69
2021/08/16 12:29:01;;;;;;;5.03;4.30;;;17.50;99.90;;;;;;5090001;28;20908;-70
2021/08/16 12:31:29;;;;;;;9.03;4.97;;;17.50;99.90;;;;;;5083955;28;20402;-70
2021/08/16 12:34:03;;;;;;;5.80;4.60;;;17.50;99.90;;;;;;5058164;28;20909;-70
2021/08/16 12:36:37;;;;;;;6.13;4.90;;;17.60;99.90;;;;;;5082380;28;20503;-70
2021/08/16 12:39:07;;;;;;;7.63;4.23;;;17.60;99.90;;;;;;5059315;28;20413;-70
2021/08/16 12:41:33;;;;;;;6.50;5.07;;;17.60;99.90;;;;;;5060586;28;20498;-70
2021/08/16 12:44:00;;;;;;;5.50;4.50;;;17.70;99.90;;;;;;5049202;28;20497;-70
2021/08/16 12:49:21;;;;;;;6.13;4.20;;;17.70;99.90;;;;;;5111189;27;20501;-74
2021/08/16 12:51:47;;;;;;;5.83;4.00;;;17.60;99.90;;;;;;5109469;28;20822;-74
2021/08/16 12:54:12;;;;;;;6.07;4.93;;;17.60;99.90;;;;;;5110403;28;20396;-75
2021/08/16 12:56:37;;;;;;;4.13;3.73;;;17.50;99.90;;;;;;5093105;28;20186;-75
2021/08/16 12:59:03;;;;;;;4.40;4.00;;;17.40;99.90;;;;;;5090262;28;20201;-74
2021/08/16 13:01:29;;;;;;;6.27;4.10;;;17.40;99.90;;;;;;5089891;28;20161;-74